createdAt,value
2022-12-28T00:31:56.418Z,979.78
2022-12-28T00:32:56.409Z,979.79
2022-12-28T00:33:56.412Z,979.80
2022-12-28T00:34:56.450Z,979.82
2022-12-28T00:35:56.491Z,979.81
2022-12-28T00:37:09.269Z,979.79
2022-12-28T00:37:56.576Z,979.74
2022-12-28T00:38:57.272Z,979.81
2022-12-28T00:39:56.677Z,979.80
2022-12-28T00:40:57.460Z,979.77
2022-12-28T00:41:56.734Z,979.76
2022-12-28T00:42:56.765Z,979.71
2022-12-28T00:43:56.802Z,979.72
2022-12-28T00:44:57.763Z,979.74
2022-12-28T00:45:56.944Z,979.64
2022-12-28T00:46:56.971Z,979.61
2022-12-28T00:47:56.975Z,979.61
2022-12-28T00:48:57.011Z,979.59
2022-12-28T00:49:57.046Z,979.63
2022-12-28T00:50:57.083Z,979.62
2022-12-28T00:51:57.144Z,979.63
2022-12-28T00:52:57.159Z,979.64
2022-12-28T00:53:57.217Z,979.64
2022-12-28T00:54:57.264Z,979.63
2022-12-28T00:55:57.295Z,979.65
2022-12-28T00:56:57.354Z,979.65
2022-12-28T00:57:57.423Z,979.61
2022-12-28T00:58:57.417Z,979.59
2022-12-28T00:59:57.451Z,979.62
2022-12-28T01:00:57.581Z,979.65
2022-12-28T01:01:57.708Z,979.66
2022-12-28T01:02:57.641Z,979.68
2022-12-28T01:03:58.263Z,979.68
2022-12-28T01:04:57.656Z,979.69
2022-12-28T01:05:58.274Z,979.69
2022-12-28T01:06:57.734Z,979.70
2022-12-28T01:07:57.818Z,979.65
2022-12-28T01:08:57.815Z,979.65
2022-12-28T01:09:57.879Z,979.61
2022-12-28T01:10:58.766Z,979.60
2022-12-28T01:11:57.933Z,979.65
2022-12-28T01:12:57.975Z,979.61
2022-12-28T01:13:58.021Z,979.61
2022-12-28T01:14:58.077Z,979.54
2022-12-28T01:15:58.106Z,979.58
2022-12-28T01:16:58.261Z,979.60
2022-12-28T01:17:58.173Z,979.61
2022-12-28T01:18:58.229Z,979.62
2022-12-28T01:19:58.255Z,979.58
2022-12-28T01:20:58.298Z,979.58
2022-12-28T01:21:58.360Z,979.56
2022-12-28T01:22:59.270Z,979.53
2022-12-28T01:23:58.434Z,979.55
2022-12-28T01:24:58.463Z,979.58
2022-12-28T01:26:00.456Z,979.53
2022-12-28T01:26:58.587Z,979.52
2022-12-28T01:27:59.271Z,979.48
2022-12-28T01:28:58.650Z,979.51
2022-12-28T01:29:59.467Z,979.51
2022-12-28T01:30:58.724Z,979.49
2022-12-28T01:31:58.861Z,979.45
2022-12-28T01:32:58.805Z,979.50
2022-12-28T01:33:58.836Z,979.51
2022-12-28T01:34:58.890Z,979.47
2022-12-28T01:35:58.915Z,979.48
2022-12-28T01:36:58.945Z,979.45
2022-12-28T01:37:59.006Z,979.44
2022-12-28T01:38:59.051Z,979.45
2022-12-28T01:39:59.106Z,979.50
2022-12-28T01:40:59.775Z,979.51
2022-12-28T01:41:59.765Z,979.38
2022-12-28T01:42:59.770Z,979.36
2022-12-28T01:43:59.241Z,979.31
2022-12-28T01:44:59.311Z,979.37
2022-12-28T01:45:59.410Z,979.36
2022-12-28T01:46:59.388Z,979.37
2022-12-28T01:47:59.400Z,979.37
2022-12-28T01:48:59.441Z,979.37
2022-12-28T01:49:59.517Z,979.38
2022-12-28T01:50:59.519Z,979.34
2022-12-28T01:51:59.573Z,979.34
2022-12-28T01:52:59.613Z,979.29
2022-12-28T01:53:59.690Z,979.33
2022-12-28T01:54:59.690Z,979.27
2022-12-28T01:55:59.729Z,979.28
2022-12-28T01:56:59.768Z,979.29
2022-12-28T01:57:59.831Z,979.27
2022-12-28T01:58:59.859Z,979.27
2022-12-28T02:00:00.778Z,979.21
2022-12-28T02:01:00.924Z,979.23
2022-12-28T02:02:00.188Z,979.23
2022-12-28T02:03:00.106Z,979.19
2022-12-28T02:04:00.088Z,979.20
2022-12-28T02:05:00.135Z,979.19
2022-12-28T02:06:00.146Z,979.18
2022-12-28T02:07:00.175Z,979.15
2022-12-28T02:08:00.224Z,979.15
2022-12-28T02:09:00.787Z,979.10
2022-12-28T02:10:42.371Z,979.09
2022-12-28T02:11:00.339Z,979.10
2022-12-28T02:12:00.406Z,979.05
2022-12-28T02:13:00.506Z,979.02
2022-12-28T02:14:01.291Z,979.00
2022-12-28T02:15:00.521Z,979.01
2022-12-28T02:16:01.304Z,979.00
2022-12-28T02:17:00.665Z,978.99
2022-12-28T02:18:00.642Z,978.93
2022-12-28T02:19:00.691Z,979.00
2022-12-28T02:20:00.718Z,978.98
2022-12-28T02:21:00.781Z,978.98
2022-12-28T02:22:00.795Z,979.01
2022-12-28T02:23:01.777Z,978.98
2022-12-28T02:24:01.773Z,978.96
2022-12-28T02:25:13.027Z,978.95
2022-12-28T02:26:00.982Z,978.94
2022-12-28T02:27:00.999Z,978.95
2022-12-28T02:28:01.043Z,978.90
2022-12-28T02:29:01.077Z,978.91
2022-12-28T02:30:01.111Z,978.87
2022-12-28T02:31:01.237Z,978.86
2022-12-28T02:32:01.203Z,978.87
2022-12-28T02:33:01.251Z,978.84
2022-12-28T02:34:01.322Z,978.84
2022-12-28T02:35:01.331Z,978.81
2022-12-28T02:36:02.280Z,978.79
2022-12-28T02:37:01.401Z,978.77
2022-12-28T02:38:01.447Z,978.76
2022-12-28T02:39:01.517Z,978.76
2022-12-28T02:40:01.528Z,978.77
2022-12-28T02:41:01.593Z,978.73
2022-12-28T02:42:02.265Z,978.74
2022-12-28T02:43:02.277Z,978.73
2022-12-28T02:44:01.734Z,978.71
2022-12-28T02:45:01.792Z,978.70
2022-12-28T02:46:02.831Z,978.72
2022-12-28T02:47:01.843Z,978.70
2022-12-28T02:48:01.868Z,978.69
2022-12-28T02:49:01.909Z,978.70
2022-12-28T02:50:02.014Z,978.68
2022-12-28T02:51:01.983Z,978.70
2022-12-28T02:52:02.059Z,978.70
2022-12-28T02:53:02.068Z,978.67
2022-12-28T03:59:00.618Z,978.08
2022-12-28T04:00:00.622Z,978.10
2022-12-28T04:01:01.410Z,978.06
2022-12-28T04:02:00.865Z,978.07
2022-12-28T04:03:00.847Z,978.05
2022-12-28T04:04:00.813Z,978.07
2022-12-28T04:05:00.835Z,978.05
2022-12-28T04:06:00.858Z,978.03
2022-12-28T04:07:00.894Z,977.98
2022-12-28T04:08:00.968Z,978.02
2022-12-28T04:09:00.976Z,978.03
2022-12-28T04:10:01.016Z,978.04
2022-12-28T04:11:01.070Z,978.06
2022-12-28T04:12:01.120Z,978.04
2022-12-28T04:13:01.848Z,978.02
2022-12-28T04:14:04.276Z,977.97
2022-12-28T04:15:01.226Z,978.00
2022-12-28T04:16:01.917Z,977.99
2022-12-28T04:17:01.888Z,977.95
2022-12-28T04:18:01.338Z,977.94
2022-12-28T04:19:01.432Z,977.92
2022-12-28T04:20:02.362Z,977.91
2022-12-28T04:21:02.358Z,977.91
2022-12-28T04:22:01.520Z,977.87
2022-12-28T04:23:02.359Z,977.86
2022-12-28T04:24:01.615Z,977.89
2022-12-28T04:25:01.638Z,977.93
2022-12-28T04:26:01.699Z,977.83
2022-12-28T04:27:01.713Z,977.87
2022-12-28T04:28:02.363Z,977.91
2022-12-28T04:29:02.365Z,977.89
2022-12-28T04:30:01.843Z,977.86
2022-12-28T04:31:01.966Z,977.89
2022-12-28T04:32:01.925Z,977.88
2022-12-28T04:33:02.860Z,977.87
2022-12-28T04:34:02.029Z,977.87
2022-12-28T04:35:02.596Z,977.84
2022-12-28T04:36:02.105Z,977.85
2022-12-28T04:37:02.130Z,977.88
2022-12-28T04:38:02.861Z,977.82
2022-12-28T04:39:02.860Z,977.80
2022-12-28T04:40:02.291Z,977.80
2022-12-28T04:41:02.873Z,977.79
2022-12-28T04:42:02.327Z,977.78
2022-12-28T04:43:02.380Z,977.83
2022-12-28T04:44:03.372Z,977.80
2022-12-28T04:45:02.477Z,977.80
2022-12-28T04:46:02.512Z,977.76
2022-12-28T04:47:03.362Z,977.80
2022-12-28T04:48:03.364Z,977.77
2022-12-28T04:49:03.371Z,977.79
2022-12-28T04:50:02.700Z,977.81
2022-12-28T04:51:03.354Z,977.80
2022-12-28T04:52:02.777Z,977.78
2022-12-28T04:53:02.826Z,977.75
2022-12-28T04:54:02.831Z,977.76
2022-12-28T04:55:02.906Z,977.75
2022-12-28T04:56:02.913Z,977.81
2022-12-28T04:57:02.987Z,977.78
2022-12-28T04:58:03.003Z,977.78
2022-12-28T04:59:03.067Z,977.79
2022-12-28T05:00:03.082Z,977.79
2022-12-28T05:01:03.963Z,977.82
2022-12-28T05:02:03.313Z,977.77
2022-12-28T05:03:03.923Z,977.78
2022-12-28T05:04:03.262Z,977.76
2022-12-28T05:05:03.289Z,977.76
2022-12-28T05:06:03.314Z,977.78
2022-12-28T05:07:03.855Z,977.74
2022-12-28T05:08:03.418Z,977.73
2022-12-28T05:09:03.476Z,977.74
2022-12-28T05:10:04.365Z,977.67
2022-12-28T05:11:03.523Z,977.69
2022-12-28T05:12:03.607Z,977.66
2022-12-28T05:13:03.607Z,977.64
2022-12-28T05:14:03.660Z,977.67
2022-12-28T05:15:03.685Z,977.64
2022-12-28T05:16:03.803Z,977.64
2022-12-28T05:17:03.809Z,977.67
2022-12-28T05:18:04.372Z,977.67
2022-12-28T05:19:03.862Z,977.63
2022-12-28T05:20:04.861Z,977.62
2022-12-28T05:21:04.867Z,977.64
2022-12-28T05:22:04.001Z,977.68
2022-12-28T05:23:04.016Z,977.60
2022-12-28T05:24:04.863Z,977.62
2022-12-28T05:25:05.600Z,977.59
2022-12-28T05:26:04.224Z,977.57
2022-12-28T05:27:04.236Z,977.55
2022-12-28T05:28:04.243Z,977.53
2022-12-28T05:29:04.270Z,977.52
2022-12-28T05:30:04.871Z,977.49
2022-12-28T05:31:04.440Z,977.52
2022-12-28T05:32:04.422Z,977.53
2022-12-28T05:33:05.359Z,977.52
2022-12-28T05:34:04.511Z,977.47
2022-12-28T05:35:05.365Z,977.52
2022-12-28T05:36:05.369Z,977.48
2022-12-28T05:37:05.354Z,977.51
2022-12-28T05:38:04.625Z,977.48
2022-12-28T05:39:04.709Z,977.49
2022-12-28T05:40:05.381Z,977.50
2022-12-28T05:41:05.356Z,977.46
2022-12-28T05:42:04.799Z,977.44
2022-12-28T05:43:06.550Z,977.41
2022-12-28T05:44:04.902Z,977.39
2022-12-28T05:45:05.858Z,977.47
2022-12-28T05:46:04.968Z,977.44
2022-12-28T05:47:05.913Z,977.44
2022-12-28T05:48:05.051Z,977.42
2022-12-28T05:49:05.112Z,977.38
2022-12-28T05:50:05.863Z,977.35
2022-12-28T05:51:05.164Z,977.37
2022-12-28T05:52:05.227Z,977.38
2022-12-28T05:53:05.859Z,977.40
2022-12-28T05:54:05.292Z,977.41
2022-12-28T05:55:05.322Z,977.38
2022-12-28T05:56:10.701Z,977.37
2022-12-28T05:57:05.444Z,977.40
2022-12-28T05:58:05.452Z,977.34
2022-12-28T05:59:05.485Z,977.36
2022-12-28T06:00:05.574Z,977.36
2022-12-28T06:01:05.624Z,977.36
2022-12-28T06:02:06.495Z,977.36
2022-12-28T06:03:06.434Z,977.36
2022-12-28T06:04:06.358Z,977.36
2022-12-28T06:05:05.758Z,977.39
2022-12-28T06:06:06.358Z,977.41
2022-12-28T06:07:06.380Z,977.36
2022-12-28T06:08:06.357Z,977.33
2022-12-28T06:09:05.956Z,977.32
2022-12-28T06:10:05.957Z,977.36
2022-12-28T06:11:05.991Z,977.32
2022-12-28T06:12:06.069Z,977.34
2022-12-28T06:13:06.086Z,977.39
2022-12-28T06:14:06.157Z,977.35
2022-12-28T06:15:06.145Z,977.35
2022-12-28T06:16:06.222Z,977.39
2022-12-28T06:17:06.256Z,977.32
2022-12-28T06:18:06.269Z,977.35
2022-12-28T06:19:06.868Z,977.39
2022-12-28T06:20:06.353Z,977.36
2022-12-28T06:21:06.395Z,977.35
2022-12-28T06:22:06.448Z,977.37
2022-12-28T06:23:07.361Z,977.32
2022-12-28T06:24:06.533Z,977.36
2022-12-28T06:25:07.371Z,977.42
2022-12-28T06:26:06.592Z,977.41
2022-12-28T06:27:06.643Z,977.37
2022-12-28T06:28:06.710Z,977.34
2022-12-28T06:29:07.365Z,977.42
2022-12-28T06:30:06.760Z,977.44
2022-12-28T06:31:06.796Z,977.43
2022-12-28T06:32:06.877Z,977.38
2022-12-28T06:33:06.916Z,977.40
2022-12-28T06:34:07.879Z,977.43
2022-12-28T06:35:06.967Z,977.39
2022-12-28T06:36:07.006Z,977.38
2022-12-28T06:37:07.043Z,977.35
2022-12-28T06:38:07.110Z,977.35
2022-12-28T06:39:07.145Z,977.35
2022-12-28T06:40:07.205Z,977.31
2022-12-28T06:41:15.055Z,977.34
2022-12-28T06:42:07.243Z,977.34
2022-12-28T06:43:07.292Z,977.34
2022-12-28T06:44:07.340Z,977.30
2022-12-28T06:45:08.361Z,977.31
2022-12-28T06:46:07.493Z,977.34
2022-12-28T06:47:07.454Z,977.36
2022-12-28T06:48:07.493Z,977.35
2022-12-28T06:49:07.531Z,977.37
2022-12-28T06:50:07.578Z,977.31
2022-12-28T06:51:07.636Z,977.33
2022-12-28T06:52:07.674Z,977.33
2022-12-28T06:53:08.369Z,977.29
2022-12-28T06:54:08.358Z,977.31
2022-12-28T06:55:07.779Z,977.30
2022-12-28T06:56:07.841Z,977.30
2022-12-28T06:57:08.368Z,977.24
2022-12-28T06:58:07.933Z,977.27
2022-12-28T06:59:07.937Z,977.26
2022-12-28T07:00:07.992Z,977.23
2022-12-28T07:01:08.238Z,977.27
2022-12-28T07:02:08.229Z,977.25
2022-12-28T07:03:08.119Z,977.22
2022-12-28T07:04:08.169Z,977.24
2022-12-28T07:05:08.888Z,977.21
2022-12-28T07:06:08.221Z,977.26
2022-12-28T07:07:08.293Z,977.26
2022-12-28T07:08:12.488Z,977.28
2022-12-28T07:09:08.881Z,977.29
2022-12-28T07:10:08.380Z,977.31
2022-12-28T07:11:08.453Z,977.28
2022-12-28T07:12:09.363Z,977.22
2022-12-28T07:13:08.512Z,977.26
2022-12-28T07:14:08.556Z,977.22
2022-12-28T07:15:08.593Z,977.26
2022-12-28T07:16:08.703Z,977.29
2022-12-28T07:17:08.690Z,977.32
2022-12-28T07:18:08.706Z,977.30
2022-12-28T07:19:08.752Z,977.25
2022-12-28T07:20:08.795Z,977.26
2022-12-28T07:21:08.865Z,977.25
2022-12-28T07:22:08.901Z,977.28
2022-12-28T07:23:08.915Z,977.32
2022-12-28T07:24:08.974Z,977.34
2022-12-28T07:25:19.408Z,977.37
2022-12-28T07:26:09.075Z,977.35
2022-12-28T07:27:09.091Z,977.37
2022-12-28T07:28:09.126Z,977.37
2022-12-28T07:29:09.163Z,977.39
2022-12-28T07:30:09.899Z,977.42
2022-12-28T07:31:09.298Z,977.34
2022-12-28T07:32:09.284Z,977.32
2022-12-28T07:43:09.062Z,977.28
2022-12-28T07:43:52.634Z,977.28
2022-12-28T07:44:52.653Z,977.24
2022-12-28T07:45:52.734Z,977.20
2022-12-28T07:46:52.739Z,977.19
2022-12-28T07:47:52.775Z,977.17
2022-12-28T07:48:52.846Z,977.15
2022-12-28T07:49:52.852Z,977.18
2022-12-28T07:50:53.512Z,977.21
2022-12-28T07:51:52.953Z,977.19
2022-12-28T07:52:52.974Z,977.16
2022-12-28T07:53:54.004Z,977.14
2022-12-28T07:54:53.059Z,977.16
2022-12-28T07:55:53.088Z,977.19
2022-12-28T07:56:53.159Z,977.13
2022-12-28T07:57:53.176Z,977.19
2022-12-28T07:58:53.236Z,977.19
2022-12-28T07:59:53.264Z,977.21
2022-12-28T08:00:53.343Z,977.21
2022-12-28T08:01:53.483Z,977.22
2022-12-28T08:02:53.387Z,977.23
2022-12-28T08:03:53.470Z,977.19
2022-12-28T08:04:53.506Z,977.23
2022-12-28T08:05:53.518Z,977.19
2022-12-28T08:06:53.574Z,977.18
2022-12-28T08:07:58.419Z,977.17
2022-12-28T08:08:53.638Z,977.20
2022-12-28T08:09:53.691Z,977.18
2022-12-28T08:10:53.736Z,977.17
2022-12-28T08:11:53.781Z,977.18
2022-12-28T08:12:53.792Z,977.15
2022-12-28T08:13:55.527Z,977.19
2022-12-28T08:14:53.892Z,977.17
2022-12-28T08:15:54.009Z,977.19
2022-12-28T08:16:53.969Z,977.18
2022-12-28T08:17:54.010Z,977.15
2022-12-28T08:18:54.057Z,977.18
2022-12-28T08:19:54.097Z,977.15
2022-12-28T08:20:54.148Z,977.16
2022-12-28T08:21:54.201Z,977.12
2022-12-28T08:22:54.222Z,977.11
2022-12-28T08:23:54.265Z,977.08
2022-12-28T08:24:54.333Z,977.10
2022-12-28T08:25:54.336Z,977.07
2022-12-28T08:26:54.412Z,977.06
2022-12-28T08:27:54.436Z,977.10
2022-12-28T08:28:54.481Z,977.10
2022-12-28T08:29:54.552Z,977.09
2022-12-28T08:35:22.388Z,977.04
2022-12-28T08:36:22.386Z,977.03
2022-12-28T08:37:22.430Z,977.02
2022-12-28T08:38:22.481Z,976.96
2022-12-28T08:39:22.548Z,976.95
2022-12-28T08:40:22.576Z,976.95
2022-12-28T08:41:22.599Z,976.93
2022-12-28T08:42:22.652Z,976.95
2022-12-28T08:43:22.701Z,976.90
2022-12-28T08:44:22.767Z,976.86
2022-12-28T08:45:22.778Z,976.83
2022-12-28T08:46:22.926Z,976.88
2022-12-28T08:47:22.873Z,976.89
2022-12-28T08:48:22.904Z,976.86
2022-12-28T08:49:22.979Z,976.84
2022-12-28T08:50:29.544Z,976.85
2022-12-28T08:51:23.033Z,976.85
2022-12-28T08:52:23.118Z,976.86
2022-12-28T08:53:23.116Z,976.84
2022-12-28T08:54:23.177Z,976.87
2022-12-28T08:55:23.206Z,976.82
2022-12-28T08:56:23.270Z,976.85
2022-12-28T08:57:23.321Z,976.82
2022-12-28T08:58:23.332Z,976.78
2022-12-28T08:59:23.388Z,976.80
2022-12-28T09:00:23.506Z,976.78
2022-12-28T09:01:23.565Z,976.80
2022-12-28T09:02:23.687Z,976.81
2022-12-28T09:03:23.611Z,976.72
2022-12-28T09:04:23.618Z,976.75
2022-12-28T09:05:23.659Z,976.78
2022-12-28T09:06:23.701Z,976.81
2022-12-28T09:07:23.736Z,976.81
2022-12-28T09:08:23.782Z,976.83
2022-12-28T09:09:23.879Z,976.80
2022-12-28T09:10:23.872Z,976.81
2022-12-28T09:11:24.631Z,976.80
2022-12-28T09:16:40.958Z,976.77
2022-12-28T09:17:13.975Z,976.80
2022-12-28T09:18:13.996Z,976.78
2022-12-28T09:19:14.049Z,976.75
2022-12-28T09:20:14.165Z,976.76
2022-12-28T09:21:14.152Z,976.68
2022-12-28T09:22:14.213Z,976.72
2022-12-28T09:23:14.213Z,976.72
2022-12-28T09:24:14.244Z,976.66
2022-12-28T09:25:14.312Z,976.65
2022-12-28T09:26:14.340Z,976.64
2022-12-28T09:27:14.886Z,976.68
2022-12-28T09:28:14.439Z,976.73
2022-12-28T09:29:14.467Z,976.77
2022-12-28T09:30:14.535Z,976.76
2022-12-28T09:32:42.439Z,976.77
2022-12-28T09:33:10.238Z,976.70
2022-12-28T09:34:14.002Z,976.76
2022-12-28T09:34:43.294Z,976.73
2022-12-28T09:35:43.357Z,976.74
2022-12-28T09:36:43.611Z,976.73
2022-12-28T11:52:21.008Z,974.84
2022-12-28T11:52:53.956Z,974.80
2022-12-28T11:53:54.022Z,974.81
2022-12-28T11:54:54.046Z,974.77
2022-12-28T11:55:54.789Z,974.71
2022-12-28T11:56:54.826Z,974.74
2022-12-28T11:57:54.209Z,974.70
2022-12-28T11:58:54.256Z,974.68
2022-12-28T11:59:54.262Z,974.67
2022-12-28T12:00:54.334Z,974.65
2022-12-28T12:01:54.442Z,974.60
2022-12-28T12:02:54.612Z,974.60
2022-12-28T12:03:56.307Z,974.60
2022-12-28T12:04:54.505Z,974.55
2022-12-28T12:05:54.546Z,974.51
2022-12-28T12:06:54.587Z,974.49
2022-12-28T12:07:54.696Z,974.49
2022-12-28T12:08:55.302Z,974.47
2022-12-28T12:09:54.766Z,974.45
2022-12-28T12:10:54.780Z,974.45
2022-12-28T12:11:54.826Z,974.46
2022-12-28T12:12:54.864Z,974.40
2022-12-28T12:13:54.910Z,974.39
2022-12-28T12:14:55.036Z,974.39
2022-12-28T12:15:55.054Z,974.38
2022-12-28T12:16:55.108Z,974.33
2022-12-28T12:17:55.084Z,974.36
2022-12-28T12:18:55.158Z,974.32
2022-12-28T12:19:55.298Z,974.35
2022-12-28T12:20:55.813Z,974.35
2022-12-28T12:21:55.349Z,974.31
2022-12-28T12:22:55.314Z,974.28
2022-12-28T12:23:55.395Z,974.27
2022-12-28T12:24:55.407Z,974.27
2022-12-28T12:25:55.451Z,974.28
2022-12-28T12:26:55.534Z,974.25
2022-12-28T12:27:55.541Z,974.19
2022-12-28T12:28:55.580Z,974.24
2022-12-28T12:29:55.659Z,974.23
2022-12-28T12:30:55.697Z,974.23
2022-12-28T12:31:55.755Z,974.24
2022-12-28T12:32:56.326Z,974.20
2022-12-28T12:33:55.823Z,974.23
2022-12-28T12:34:55.880Z,974.19
2022-12-28T12:35:55.900Z,974.20
2022-12-28T12:36:56.033Z,974.18
2022-12-28T12:37:56.004Z,974.18
2022-12-28T12:38:56.828Z,974.16
2022-12-28T12:39:56.111Z,974.11
2022-12-28T12:40:56.143Z,974.05
2022-12-28T12:41:56.180Z,974.08
2022-12-28T12:42:56.221Z,974.11
2022-12-28T12:43:56.286Z,974.10
2022-12-28T12:44:56.325Z,974.07
2022-12-28T12:45:56.490Z,974.02
2022-12-28T12:46:59.284Z,974.07
2022-12-28T12:47:56.456Z,974.02
2022-12-28T12:48:56.582Z,973.99
2022-12-28T12:49:56.550Z,973.96
2022-12-28T12:50:56.620Z,974.00
2022-12-28T12:51:56.641Z,974.00
2022-12-28T12:52:56.681Z,973.96
2022-12-28T12:53:56.759Z,973.93
2022-12-28T12:54:56.772Z,973.96
2022-12-28T12:55:56.815Z,973.93
2022-12-28T12:56:56.889Z,973.93
2022-12-28T12:57:56.909Z,973.90
2022-12-28T12:58:56.951Z,973.87
2022-12-28T12:59:57.001Z,973.89
2022-12-28T13:00:57.101Z,973.90
2022-12-28T13:01:57.227Z,973.89
2022-12-28T13:02:57.174Z,973.93
2022-12-28T13:03:57.194Z,973.90
2022-12-28T13:04:57.243Z,973.88
2022-12-28T13:05:57.282Z,973.86
2022-12-28T13:06:57.361Z,973.85
2022-12-28T13:07:58.313Z,973.83
2022-12-28T13:09:03.294Z,973.82
2022-12-28T13:09:57.451Z,973.87
2022-12-28T13:10:57.516Z,973.80
2022-12-28T13:11:57.576Z,973.79
2022-12-28T13:12:57.610Z,973.79
2022-12-28T13:13:57.643Z,973.81
2022-12-28T13:14:57.689Z,973.79
2022-12-28T13:15:57.750Z,973.83
2022-12-28T13:16:57.795Z,973.86
2022-12-28T13:18:11.370Z,973.81
2022-12-28T13:18:58.820Z,973.83
2022-12-28T13:19:57.914Z,973.79
2022-12-28T13:20:57.955Z,973.73
2022-12-28T13:21:58.031Z,973.74
2022-12-28T13:22:58.043Z,973.72
2022-12-28T13:23:58.093Z,973.70
2022-12-28T13:24:58.139Z,973.71
2022-12-28T13:25:58.189Z,973.72
2022-12-28T13:26:58.268Z,973.73
2022-12-28T13:27:58.278Z,973.67
2022-12-28T13:28:58.350Z,973.68
2022-12-28T13:29:58.401Z,973.70
2022-12-28T13:30:58.499Z,973.73
2022-12-28T13:31:58.505Z,973.70
2022-12-28T13:32:58.505Z,973.67
2022-12-28T13:33:58.570Z,973.67
2022-12-28T13:34:58.591Z,973.66
2022-12-28T13:36:01.421Z,973.68
2022-12-28T13:36:58.692Z,973.70
2022-12-28T13:37:58.755Z,973.64
2022-12-28T13:38:58.773Z,973.63
2022-12-28T13:39:58.849Z,973.63
2022-12-28T13:40:58.872Z,973.65
2022-12-28T13:41:58.951Z,973.59
2022-12-28T13:50:44.834Z,973.52
2022-12-28T13:51:49.766Z,973.51
2022-12-28T13:52:44.909Z,973.48
2022-12-28T13:53:44.955Z,973.41
2022-12-28T13:54:44.999Z,973.44
2022-12-28T13:55:45.059Z,973.43
2022-12-28T13:56:45.081Z,973.42
2022-12-28T13:57:47.587Z,973.42
2022-12-28T13:58:45.175Z,973.46
2022-12-28T13:59:45.223Z,973.43
2022-12-28T14:00:45.317Z,973.40
2022-12-28T14:01:45.359Z,973.44
2022-12-28T14:02:45.353Z,973.46
2022-12-28T14:03:46.461Z,973.46
2022-12-28T14:04:53.590Z,973.45
2022-12-28T14:05:45.558Z,973.42
2022-12-28T14:06:45.552Z,973.48
2022-12-28T14:07:45.571Z,973.44
2022-12-28T14:08:45.659Z,973.47
2022-12-28T14:09:45.671Z,973.53
2022-12-28T14:10:45.728Z,973.49
2022-12-28T14:11:45.767Z,973.49
2022-12-28T14:15:34.554Z,973.46
2022-12-28T14:16:31.828Z,973.51
2022-12-28T14:17:32.773Z,973.46
2022-12-28T14:18:31.192Z,973.42
2022-12-28T14:21:26.557Z,973.42
2022-12-28T14:22:27.432Z,973.35
2022-12-28T14:23:26.617Z,973.29
2022-12-28T14:24:26.669Z,973.27
2022-12-28T14:25:26.728Z,973.29
2022-12-28T14:26:27.495Z,973.32
2022-12-28T14:27:35.042Z,973.34
2022-12-28T14:28:26.976Z,973.30
2022-12-28T14:29:31.513Z,973.23
2022-12-28T14:30:55.465Z,973.36
2022-12-28T14:31:27.132Z,973.30
2022-12-28T14:34:41.151Z,973.39
2022-12-28T14:35:09.384Z,973.34
2022-12-28T14:36:09.570Z,973.24
2022-12-28T14:37:30.470Z,973.30
2022-12-28T14:38:09.540Z,973.33
2022-12-28T14:39:09.545Z,973.27
2022-12-28T14:40:09.565Z,973.28
2022-12-28T14:41:09.614Z,973.24
2022-12-28T15:05:01.466Z,973.14
2022-12-28T15:06:02.091Z,973.11
2022-12-28T15:07:01.505Z,973.14
2022-12-28T15:08:01.573Z,973.17
2022-12-28T15:09:01.586Z,973.22
2022-12-28T15:10:02.594Z,973.18
2022-12-28T15:11:01.701Z,973.17
2022-12-28T15:12:03.493Z,973.15
2022-12-28T15:13:01.757Z,973.17
2022-12-28T15:14:02.579Z,973.13
2022-12-28T15:15:01.856Z,973.16
2022-12-28T15:16:01.954Z,973.13
2022-12-28T15:17:02.620Z,973.13
2022-12-28T15:18:01.978Z,973.14
2022-12-28T15:19:02.052Z,973.12
2022-12-28T15:20:10.115Z,973.14
2022-12-28T15:21:02.607Z,973.11
2022-12-28T15:22:03.113Z,973.10
2022-12-28T15:23:03.106Z,973.12
2022-12-28T15:24:02.267Z,973.09
2022-12-28T15:25:03.111Z,973.10
2022-12-28T15:26:02.319Z,973.06
2022-12-28T15:27:02.393Z,973.08
2022-12-28T15:28:02.421Z,973.02
2022-12-28T15:29:02.487Z,973.04
2022-12-28T15:30:06.568Z,973.03
2022-12-28T15:31:03.144Z,973.06
2022-12-28T15:32:03.154Z,973.05
2022-12-28T15:33:02.672Z,973.00
2022-12-28T15:34:03.608Z,972.94
2022-12-28T15:35:03.634Z,972.84
2022-12-28T15:36:02.775Z,972.92
2022-12-28T15:37:02.833Z,973.01
2022-12-28T15:38:02.845Z,973.02
2022-12-28T15:39:02.891Z,972.96
2022-12-28T15:40:03.017Z,972.96
2022-12-28T15:41:03.626Z,972.97
2022-12-28T15:42:03.107Z,972.98
2022-12-28T15:43:03.106Z,972.91
2022-12-28T15:44:03.121Z,972.92
2022-12-28T15:45:03.179Z,972.88
2022-12-28T15:46:04.369Z,972.89
2022-12-28T15:47:03.873Z,972.89
2022-12-28T15:48:03.391Z,972.86
2022-12-28T15:49:03.341Z,972.84
2022-12-28T15:50:04.116Z,972.80
2022-12-28T15:51:04.118Z,972.82
2022-12-28T15:52:03.463Z,972.82
2022-12-28T15:53:03.554Z,972.81
2022-12-28T15:54:03.549Z,972.79
2022-12-28T15:55:03.624Z,972.77
2022-12-28T15:56:04.619Z,972.79
2022-12-28T15:57:04.626Z,972.79
2022-12-28T15:58:03.734Z,972.76
2022-12-28T15:59:03.781Z,972.74
2022-12-28T16:00:03.853Z,972.73
2022-12-28T16:01:03.981Z,972.74
2022-12-28T16:02:04.059Z,972.76
2022-12-28T16:03:04.148Z,972.75
2022-12-28T16:04:04.015Z,972.79
2022-12-28T16:05:04.078Z,972.79
2022-12-28T16:06:04.633Z,972.77
2022-12-28T16:07:04.135Z,972.79
2022-12-28T16:08:05.132Z,972.78
2022-12-28T16:09:05.114Z,972.81
2022-12-28T16:10:04.364Z,972.82
2022-12-28T16:11:05.117Z,972.78
2022-12-28T16:12:05.113Z,972.78
2022-12-28T16:13:05.122Z,972.81
2022-12-28T16:14:05.117Z,972.81
2022-12-28T16:15:04.492Z,972.81
2022-12-28T16:16:04.629Z,972.84
2022-12-28T16:17:04.589Z,972.76
2022-12-28T16:18:04.618Z,972.75
2022-12-28T16:19:04.749Z,972.76
2022-12-28T16:20:05.613Z,972.74
2022-12-28T16:21:05.622Z,972.71
2022-12-28T16:22:04.836Z,972.73
2022-12-28T16:23:04.823Z,972.72
2022-12-28T16:24:05.669Z,972.75
2022-12-28T16:25:04.945Z,972.75
2022-12-28T16:26:05.022Z,972.73
2022-12-28T16:27:05.631Z,972.74
2022-12-28T16:28:05.037Z,972.75
2022-12-28T16:29:05.680Z,972.76
2022-12-28T16:30:05.183Z,972.75
2022-12-28T16:31:06.122Z,972.70
2022-12-28T16:32:05.366Z,972.68
2022-12-28T16:33:05.250Z,972.68
2022-12-28T16:34:05.367Z,972.72
2022-12-28T16:35:06.127Z,972.70
2022-12-28T16:36:06.131Z,972.69
2022-12-28T16:37:05.458Z,972.67
2022-12-28T16:38:06.128Z,972.64
2022-12-28T16:39:05.537Z,972.65
2022-12-28T16:40:06.122Z,972.61
2022-12-28T16:41:05.596Z,972.65
2022-12-28T16:42:05.641Z,972.64
2022-12-28T16:43:06.660Z,972.59
2022-12-28T16:44:05.758Z,972.57
2022-12-28T16:45:05.767Z,972.59
2022-12-28T16:46:05.940Z,972.59
2022-12-28T16:47:05.874Z,972.55
2022-12-28T16:48:05.909Z,972.60
2022-12-28T16:49:06.639Z,972.55
2022-12-28T16:50:06.012Z,972.52
2022-12-28T16:51:06.034Z,972.49
2022-12-28T16:52:06.121Z,972.49
2022-12-28T16:53:06.162Z,972.45
2022-12-28T16:54:07.140Z,972.48
2022-12-28T16:55:07.137Z,972.47
2022-12-28T16:56:06.269Z,972.45
2022-12-28T16:57:06.307Z,972.46
2022-12-28T16:58:06.360Z,972.41
2022-12-28T16:59:06.426Z,972.39
2022-12-28T17:00:07.131Z,972.44
2022-12-28T17:01:07.381Z,972.46
2022-12-28T17:02:06.592Z,972.45
2022-12-28T17:03:06.630Z,972.42
2022-12-28T17:04:06.669Z,972.43
2022-12-28T17:05:06.653Z,972.41
2022-12-28T17:06:06.696Z,972.43
2022-12-28T17:07:06.728Z,972.40
2022-12-28T17:08:06.763Z,972.43
2022-12-28T17:09:06.845Z,972.38
2022-12-28T17:10:07.640Z,972.39
2022-12-28T17:11:07.630Z,972.36
2022-12-28T17:12:06.946Z,972.33
2022-12-28T17:13:07.017Z,972.35
2022-12-28T17:14:07.052Z,972.31
2022-12-28T17:15:07.633Z,972.26